Time;durP1;ratioP1;P1;durP2;ratioP2;P2;SDS_P1;SDS_P2;PMS_P1;PMS_P2;Temp;Humidity;BMP_temperature;BMP_pressure;BME280_temperature;BME280_humidity;BME280_pressure;Samples;Min_cycle;Max_cycle;Signal;HPM_P1;HPM_P2
2023/08/14 00:02:02;;;;;;;7.72;4.07;;;;;;;;;;5071846;28;20071;-67
2023/08/14 00:04:48;;;;;;;4.85;2.90;;;;;;;;;;5073275;28;20016;-67
2023/08/14 00:07:34;;;;;;;5.85;3.70;;;;;;;;;;5072721;28;20099;-67
2023/08/14 00:10:19;;;;;;;8.23;3.90;;;;;;;;;;5058729;28;20035;-67
2023/08/14 00:13:05;;;;;;;7.85;3.78;;;;;;;;;;5072699;28;20059;-69
2023/08/14 00:15:50;;;;;;;8.10;3.95;;;;;;;;;;5072731;28;20016;-67
2023/08/14 00:18:36;;;;;;;6.50;3.50;;;;;;;;;;5072422;28;20036;-67
2023/08/14 00:21:22;;;;;;;7.68;3.42;;;;;;;;;;5073184;28;20045;-67
2023/08/14 00:24:08;;;;;;;9.13;3.72;;;;;;;;;;5072660;28;20021;-68
2023/08/14 00:26:54;;;;;;;8.57;3.53;;;;;;;;;;5058872;28;20120;-67
2023/08/14 00:29:39;;;;;;;10.43;3.50;;;;;;;;;;5072747;28;20028;-67
2023/08/14 00:32:25;;;;;;;4.68;3.15;;;;;;;;;;5072874;28;20079;-75
2023/08/14 00:35:10;;;;;;;8.00;3.15;;;;;;;;;;5073823;28;20429;-76
2023/08/14 00:37:56;;;;;;;10.30;3.42;;;;;;;;;;5072497;28;20023;-75
2023/08/14 00:40:42;;;;;;;6.63;4.05;;;;;;;;;;5072509;28;20078;-75
2023/08/14 00:43:28;;;;;;;6.93;3.50;;;;;;;;;;5073209;28;20025;-76
2023/08/14 00:46:14;;;;;;;6.35;3.53;;;;;;;;;;5073885;28;20028;-76
2023/08/14 00:49:00;;;;;;;4.93;3.17;;;;;;;;;;5074243;28;20021;-72
2023/08/14 00:51:45;;;;;;;9.55;3.35;;;;;;;;;;5072416;28;20395;-74
2023/08/14 00:54:31;;;;;;;7.10;3.50;;;;;;;;;;5073193;28;20107;-72
2023/08/14 00:57:17;;;;;;;4.95;3.65;;;;;;;;;;5072568;28;20581;-73
2023/08/14 01:00:04;;;;;;;4.75;3.20;;;;;;;;;;5073709;28;20035;-72
2023/08/14 01:02:50;;;;;;;9.25;3.45;;;;;;;;;;5071883;28;20463;-73
2023/08/14 01:05:35;;;;;;;7.03;4.18;;;;;;;;;;5072206;28;20056;-73
2023/08/14 01:08:21;;;;;;;5.55;3.42;;;;;;;;;;5072303;28;20391;-74
2023/08/14 01:11:07;;;;;;;5.82;3.97;;;;;;;;;;5073769;28;20028;-68
2023/08/14 01:14:06;;;;;;;5.47;3.17;;;;;;;;;;5072492;28;20404;-67
2023/08/14 01:16:56;;;;;;;7.40;3.30;;;;;;;;;;5073131;28;20051;-67
2023/08/14 01:19:44;;;;;;;8.20;3.88;;;;;;;;;;5071736;28;20049;-66
2023/08/14 01:22:30;;;;;;;7.53;3.10;;;;;;;;;;5071747;28;20082;-67
2023/08/14 01:25:37;;;;;;;9.85;4.38;;;;;;;;;;5072698;28;20047;-67
2023/08/14 01:28:23;;;;;;;8.52;4.47;;;;;;;;;;5071245;28;20025;-66
2023/08/14 01:31:08;;;;;;;6.43;3.42;;;;;;;;;;5071454;28;20048;-76
2023/08/14 01:33:54;;;;;;;6.50;3.42;;;;;;;;;;5071991;28;20507;-75
2023/08/14 01:36:44;;;;;;;6.72;3.60;;;;;;;;;;5058646;28;20104;-76
2023/08/14 01:39:35;;;;;;;6.68;3.60;;;;;;;;;;5071265;28;20100;-75
2023/08/14 01:42:29;;;;;;;10.35;4.25;;;;;;;;;;5071495;28;20032;-75
2023/08/14 01:45:21;;;;;;;6.50;3.30;;;;;;;;;;5071687;28;20021;-71
2023/08/14 01:48:07;;;;;;;10.48;4.32;;;;;;;;;;5072018;28;20459;-74
2023/08/14 01:50:53;;;;;;;7.32;3.85;;;;;;;;;;5072077;28;20028;-74
2023/08/14 01:53:39;;;;;;;10.13;3.63;;;;;;;;;;5072390;28;20035;-75
2023/08/14 01:56:25;;;;;;;7.80;3.75;;;;;;;;;;5071195;28;20040;-75
2023/08/14 01:59:11;;;;;;;7.47;4.05;;;;;;;;;;5071647;28;20376;-75
2023/08/14 02:01:56;;;;;;;8.80;4.18;;;;;;;;;;5056519;28;20089;-75
2023/08/14 02:04:42;;;;;;;7.20;3.90;;;;;;;;;;5071377;28;20506;-74
2023/08/14 02:07:27;;;;;;;5.95;3.50;;;;;;;;;;5071177;28;20108;-67
2023/08/14 02:10:13;;;;;;;7.35;3.78;;;;;;;;;;5071221;28;20091;-67
2023/08/14 02:12:58;;;;;;;8.65;4.07;;;;;;;;;;5071453;28;20021;-67
2023/08/14 02:15:44;;;;;;;5.45;3.50;;;;;;;;;;5056642;28;20407;-67
2023/08/14 02:18:30;;;;;;;9.25;4.05;;;;;;;;;;5071316;28;20016;-66
2023/08/14 02:21:16;;;;;;;4.78;3.80;;;;;;;;;;5069693;28;20099;-75
2023/08/14 02:24:01;;;;;;;11.88;5.15;;;;;;;;;;5070134;28;20060;-76
2023/08/14 02:26:47;;;;;;;6.75;3.88;;;;;;;;;;5073143;28;20111;-70
2023/08/14 02:29:32;;;;;;;7.20;3.97;;;;;;;;;;5073230;28;20031;-70
2023/08/14 02:32:18;;;;;;;11.50;5.00;;;;;;;;;;5059352;28;20074;-70
2023/08/14 02:35:04;;;;;;;7.55;4.10;;;;;;;;;;5073188;28;20099;-70
2023/08/14 02:37:49;;;;;;;7.50;3.35;;;;;;;;;;5073301;28;20025;-70
2023/08/14 02:40:35;;;;;;;4.97;3.20;;;;;;;;;;5073557;28;20056;-74
2023/08/14 02:43:20;;;;;;;10.23;4.07;;;;;;;;;;5074194;28;20065;-75
2023/08/14 02:46:06;;;;;;;4.10;2.83;;;;;;;;;;5073292;28;20490;-74
2023/08/14 02:48:51;;;;;;;8.30;4.35;;;;;;;;;;5072945;28;20020;-75
2023/08/14 02:51:37;;;;;;;4.75;2.92;;;;;;;;;;5073420;28;20020;-75
2023/08/14 02:54:22;;;;;;;3.42;2.30;;;;;;;;;;5073749;28;20075;-75
2023/08/14 02:57:08;;;;;;;5.80;2.80;;;;;;;;;;5073628;28;20376;-76
2023/08/14 02:59:53;;;;;;;4.32;2.42;;;;;;;;;;5073476;28;20115;-74
2023/08/14 03:02:39;;;;;;;6.13;2.90;;;;;;;;;;5073159;28;20032;-72
2023/08/14 03:05:24;;;;;;;6.72;2.92;;;;;;;;;;5072665;28;20059;-73
2023/08/14 03:08:10;;;;;;;6.93;2.90;;;;;;;;;;5072696;28;20075;-74
2023/08/14 03:10:56;;;;;;;4.57;2.25;;;;;;;;;;5073012;28;20016;-73
2023/08/14 03:13:42;;;;;;;6.85;2.60;;;;;;;;;;5072919;28;20139;-72
2023/08/14 03:16:27;;;;;;;8.63;2.92;;;;;;;;;;5072868;28;20397;-76
2023/08/14 03:19:13;;;;;;;4.97;2.30;;;;;;;;;;5019965;28;1088463;-67
2023/08/14 03:21:58;;;;;;;8.07;3.45;;;;;;;;;;5074222;28;20040;-73
2023/08/14 03:24:44;;;;;;;5.57;3.40;;;;;;;;;;5073955;28;20123;-73
2023/08/14 03:27:29;;;;;;;5.90;3.15;;;;;;;;;;5073779;28;20447;-72
2023/08/14 03:30:15;;;;;;;4.50;2.63;;;;;;;;;;5074386;28;20048;-72
2023/08/14 03:33:00;;;;;;;3.70;2.85;;;;;;;;;;5074085;28;20020;-72
2023/08/14 03:35:46;;;;;;;4.10;2.53;;;;;;;;;;5073447;28;20056;-75
2023/08/14 03:38:32;;;;;;;4.90;2.45;;;;;;;;;;5073937;28;20025;-74
2023/08/14 03:41:19;;;;;;;5.93;3.00;;;;;;;;;;5073247;28;20028;-74
2023/08/14 03:44:04;;;;;;;15.45;4.93;;;;;;;;;;5073983;28;20407;-74
2023/08/14 03:46:50;;;;;;;6.20;3.05;;;;;;;;;;5073263;28;20024;-75
2023/08/14 03:49:35;;;;;;;4.70;2.75;;;;;;;;;;5073427;28;20020;-74
2023/08/14 03:52:21;;;;;;;8.25;3.30;;;;;;;;;;5058850;28;20518;-74
2023/08/14 03:55:07;;;;;;;7.82;3.22;;;;;;;;;;5073684;28;20104;-74
2023/08/14 03:57:54;;;;;;;7.82;2.70;;;;;;;;;;5073333;28;20024;-74
2023/08/14 04:00:39;;;;;;;6.85;2.65;;;;;;;;;;5073652;28;20139;-73
2023/08/14 04:03:26;;;;;;;4.10;2.72;;;;;;;;;;5072554;28;20542;-73
2023/08/14 04:06:12;;;;;;;6.57;3.28;;;;;;;;;;5072786;28;20026;-74
2023/08/14 04:08:58;;;;;;;5.00;2.70;;;;;;;;;;5072760;28;20028;-73
2023/08/14 04:11:44;;;;;;;4.30;3.20;;;;;;;;;;5072715;28;20024;-73
2023/08/14 04:14:30;;;;;;;7.75;2.85;;;;;;;;;;5072600;28;20025;-77
2023/08/14 04:17:16;;;;;;;10.13;4.47;;;;;;;;;;5072823;28;20023;-66
2023/08/14 04:20:01;;;;;;;8.65;3.33;;;;;;;;;;5071599;28;20055;-67
2023/08/14 04:22:47;;;;;;;9.57;3.60;;;;;;;;;;5072705;28;20078;-66
2023/08/14 04:25:32;;;;;;;5.13;3.30;;;;;;;;;;5072777;28;20078;-66
2023/08/14 04:28:18;;;;;;;7.82;3.42;;;;;;;;;;5072337;28;20028;-66
2023/08/14 04:31:03;;;;;;;5.53;2.80;;;;;;;;;;5072277;28;20031;-76
2023/08/14 04:33:49;;;;;;;5.88;2.92;;;;;;;;;;5073828;28;20478;-74
2023/08/14 04:36:35;;;;;;;4.82;2.70;;;;;;;;;;5072285;28;20070;-74
2023/08/14 04:39:20;;;;;;;5.07;2.72;;;;;;;;;;5072924;28;20383;-74
2023/08/14 04:42:06;;;;;;;5.10;2.70;;;;;;;;;;5072711;28;20028;-74
2023/08/14 04:44:52;;;;;;;4.57;3.05;;;;;;;;;;5072891;28;20051;-75
2023/08/14 04:47:37;;;;;;;5.57;3.15;;;;;;;;;;5071771;28;20525;-75
2023/08/14 04:50:23;;;;;;;4.68;2.75;;;;;;;;;;5072208;28;20024;-76
2023/08/14 04:53:08;;;;;;;7.82;3.30;;;;;;;;;;5073252;28;20021;-73
2023/08/14 04:55:54;;;;;;;5.55;2.80;;;;;;;;;;5071964;28;20078;-73
2023/08/14 04:58:39;;;;;;;9.45;2.92;;;;;;;;;;5072483;28;20029;-73
2023/08/14 05:01:25;;;;;;;5.88;3.05;;;;;;;;;;5071734;28;20078;-74
2023/08/14 05:04:11;;;;;;;6.85;3.40;;;;;;;;;;5072338;28;20035;-73
2023/08/14 05:06:56;;;;;;;5.50;3.28;;;;;;;;;;5071652;28;20020;-70
2023/08/14 05:09:42;;;;;;;6.07;3.33;;;;;;;;;;5071601;28;20028;-70
2023/08/14 05:12:27;;;;;;;6.35;2.88;;;;;;;;;;5071613;28;20028;-77
2023/08/14 05:15:13;;;;;;;6.38;3.08;;;;;;;;;;5056734;28;20017;-77
2023/08/14 05:17:58;;;;;;;8.05;3.55;;;;;;;;;;5072153;28;20017;-77
2023/08/14 05:20:45;;;;;;;6.70;2.90;;;;;;;;;;5071286;28;20400;-76
2023/08/14 05:23:31;;;;;;;6.38;3.22;;;;;;;;;;5071394;28;20055;-76
2023/08/14 05:26:16;;;;;;;5.10;2.75;;;;;;;;;;5071655;28;20494;-74
2023/08/14 05:29:02;;;;;;;4.30;2.78;;;;;;;;;;5071247;28;20025;-72
2023/08/14 05:31:47;;;;;;;5.45;3.55;;;;;;;;;;5071326;28;20032;-69
2023/08/14 05:34:33;;;;;;;5.50;2.50;;;;;;;;;;5070773;28;20039;-69
2023/08/14 05:37:18;;;;;;;8.60;3.78;;;;;;;;;;5071015;28;20020;-68
2023/08/14 05:40:04;;;;;;;6.35;3.38;;;;;;;;;;5070297;28;20451;-71
2023/08/14 05:43:03;;;;;;;7.20;3.00;;;;;;;;;;5070403;28;20501;-73
2023/08/14 05:45:49;;;;;;;7.70;3.10;;;;;;;;;;5070650;28;20046;-74
2023/08/14 05:48:34;;;;;;;5.60;2.90;;;;;;;;;;5071528;28;20040;-63
2023/08/14 05:51:20;;;;;;;7.53;2.85;;;;;;;;;;5069992;28;20421;-63
2023/08/14 05:54:06;;;;;;;9.10;3.10;;;;;;;;;;5070327;28;20028;-64
2023/08/14 05:56:51;;;;;;;4.70;2.67;;;;;;;;;;5070400;28;20133;-63
2023/08/14 05:59:37;;;;;;;5.15;2.78;;;;;;;;;;5072889;28;20098;-64
2023/08/14 06:02:22;;;;;;;6.43;2.83;;;;;;;;;;5061493;28;20029;-67
2023/08/14 06:05:08;;;;;;;6.00;3.15;;;;;;;;;;5074768;28;20422;-64
2023/08/14 06:07:54;;;;;;;2.80;2.10;;;;;;;;;;5074121;28;20100;-65
2023/08/14 06:10:40;;;;;;;4.40;2.80;;;;;;;;;;5074220;28;20108;-64
2023/08/14 06:13:25;;;;;;;4.13;3.08;;;;;;;;;;5075004;28;20024;-65
2023/08/14 06:16:12;;;;;;;7.63;2.90;;;;;;;;;;5074384;28;20428;-64
2023/08/14 06:18:57;;;;;;;5.78;3.22;;;;;;;;;;5074999;28;20099;-65
2023/08/14 06:21:43;;;;;;;3.92;2.60;;;;;;;;;;5074213;28;20051;-71
2023/08/14 06:24:29;;;;;;;6.85;3.05;;;;;;;;;;5074242;28;20028;-70
2023/08/14 06:27:14;;;;;;;3.85;3.03;;;;;;;;;;5073973;28;20030;-72
2023/08/14 06:30:00;;;;;;;7.85;3.53;;;;;;;;;;5059498;28;20063;-70
2023/08/14 06:32:46;;;;;;;7.95;3.83;;;;;;;;;;5074133;28;20501;-70
2023/08/14 06:35:31;;;;;;;3.90;3.03;;;;;;;;;;5059995;28;20073;-71
2023/08/14 06:38:17;;;;;;;5.13;2.60;;;;;;;;;;5074443;28;20097;-70
2023/08/14 06:41:02;;;;;;;5.20;3.47;;;;;;;;;;5074385;28;20044;-70
2023/08/14 06:43:48;;;;;;;5.72;2.80;;;;;;;;;;5074147;28;20040;-71
2023/08/14 06:46:33;;;;;;;4.88;2.75;;;;;;;;;;5074527;28;20024;-72
2023/08/14 06:49:19;;;;;;;5.45;3.13;;;;;;;;;;5073798;28;20020;-72
2023/08/14 06:52:05;;;;;;;5.45;2.65;;;;;;;;;;5074289;28;20013;-72
2023/08/14 06:54:50;;;;;;;6.63;2.90;;;;;;;;;;5074745;28;20093;-71
2023/08/14 06:57:36;;;;;;;5.60;2.88;;;;;;;;;;5073711;28;20475;-72
2023/08/14 07:00:21;;;;;;;5.22;3.35;;;;;;;;;;5073586;28;20025;-66
2023/08/14 07:03:07;;;;;;;3.35;2.55;;;;;;;;;;5073843;28;20076;-67
2023/08/14 07:05:53;;;;;;;5.07;2.35;;;;;;;;;;5073565;28;20028;-67
2023/08/14 07:08:38;;;;;;;6.13;2.60;;;;;;;;;;5073573;28;20016;-67
2023/08/14 07:11:24;;;;;;;6.05;2.63;;;;;;;;;;5073019;28;20032;-67
2023/08/14 07:14:09;;;;;;;5.75;2.85;;;;;;;;;;5059380;28;20081;-66
2023/08/14 07:16:55;;;;;;;8.68;3.00;;;;;;;;;;5073302;28;20024;-63
2023/08/14 07:19:40;;;;;;;5.00;2.88;;;;;;;;;;5073710;28;20071;-62
2023/08/14 07:22:26;;;;;;;7.10;3.00;;;;;;;;;;5058786;28;20033;-64
2023/08/14 07:25:13;;;;;;;6.70;2.92;;;;;;;;;;5073156;28;20020;-62
2023/08/14 07:27:58;;;;;;;3.97;2.63;;;;;;;;;;5073521;28;20040;-63
2023/08/14 07:30:44;;;;;;;5.10;2.70;;;;;;;;;;5072987;28;20368;-63
2023/08/14 07:33:29;;;;;;;5.60;2.53;;;;;;;;;;5073446;28;20070;-62
2023/08/14 07:36:15;;;;;;;5.40;3.00;;;;;;;;;;5072739;28;20529;-67
2023/08/14 07:39:00;;;;;;;4.30;2.58;;;;;;;;;;5072933;28;20336;-73
2023/08/14 07:41:46;;;;;;;5.05;2.97;;;;;;;;;;5073128;28;20043;-74
2023/08/14 07:44:31;;;;;;;7.55;3.20;;;;;;;;;;5072849;28;20166;-74
2023/08/14 07:47:17;;;;;;;7.25;3.05;;;;;;;;;;5073052;28;20017;-75
2023/08/14 07:50:03;;;;;;;5.68;2.80;;;;;;;;;;5072804;28;20017;-74
2023/08/14 07:52:48;;;;;;;4.05;2.65;;;;;;;;;;5073742;28;20060;-63
2023/08/14 07:55:34;;;;;;;5.25;2.50;;;;;;;;;;5072416;28;20116;-65
2023/08/14 07:58:19;;;;;;;3.95;2.20;;;;;;;;;;5072522;28;20025;-65
2023/08/14 08:01:05;;;;;;;4.65;2.20;;;;;;;;;;5072796;28;20016;-66
2023/08/14 08:03:51;;;;;;;7.30;2.70;;;;;;;;;;5072868;28;20028;-64
2023/08/14 08:06:36;;;;;;;3.88;2.28;;;;;;;;;;5072272;28;20121;-65
2023/08/14 08:09:22;;;;;;;5.30;3.03;;;;;;;;;;5072546;28;20103;-65
2023/08/14 08:12:08;;;;;;;4.25;2.22;;;;;;;;;;5073236;28;20059;-74
2023/08/14 08:14:53;;;;;;;4.57;2.25;;;;;;;;;;5072261;28;20148;-74
2023/08/14 08:17:39;;;;;;;7.75;3.25;;;;;;;;;;5072111;28;20024;-75
2023/08/14 08:20:25;;;;;;;5.25;2.08;;;;;;;;;;5072190;28;20063;-75
2023/08/14 08:23:10;;;;;;;4.55;2.40;;;;;;;;;;5056879;28;20028;-75
2023/08/14 08:25:56;;;;;;;4.85;2.25;;;;;;;;;;5072142;28;20035;-74
2023/08/14 08:28:41;;;;;;;2.72;1.98;;;;;;;;;;5071921;28;20024;-75
2023/08/14 08:31:27;;;;;;;4.40;2.15;;;;;;;;;;5071837;28;20020;-64
2023/08/14 08:34:12;;;;;;;2.60;1.85;;;;;;;;;;5072209;28;20016;-72
2023/08/14 08:36:58;;;;;;;4.00;2.13;;;;;;;;;;5071742;28;20530;-72
2023/08/14 08:39:43;;;;;;;4.20;2.10;;;;;;;;;;5071913;28;20124;-72
2023/08/14 08:42:29;;;;;;;3.80;2.13;;;;;;;;;;5071541;28;20120;-72
2023/08/14 08:45:16;;;;;;;3.67;1.70;;;;;;;;;;5071978;28;20082;-72
2023/08/14 08:48:05;;;;;;;3.42;2.00;;;;;;;;;;5071257;28;20013;-71
2023/08/14 08:50:50;;;;;;;;;;;;;;;;;;5072241;28;20082;-78
2023/08/14 08:53:37;;;;;;;6.47;2.30;;;;;;;;;;5072647;28;19905;-77
2023/08/14 08:56:22;;;;;;;3.58;2.20;;;;;;;;;;5071689;28;20055;-77
2023/08/14 08:59:09;;;;;;;3.67;2.22;;;;;;;;;;5070780;28;20052;-77
2023/08/14 09:01:54;;;;;;;3.95;2.55;;;;;;;;;;5071259;28;20135;-76
2023/08/14 09:04:40;;;;;;;2.92;2.08;;;;;;;;;;5071132;28;20020;-77
2023/08/14 09:07:25;;;;;;;4.68;2.35;;;;;;;;;;5071384;28;20360;-75
2023/08/14 09:10:11;;;;;;;2.35;2.10;;;;;;;;;;5072386;22;20136;-68
2023/08/14 09:12:56;;;;;;;4.05;2.03;;;;;;;;;;5041486;28;20043;-70
2023/08/14 09:15:42;;;;;;;5.32;3.40;;;;;;;;;;5022594;28;20037;-68
2023/08/14 09:18:29;;;;;;;6.35;2.58;;;;;;;;;;5033473;28;20051;-69
2023/08/14 09:21:15;;;;;;;3.15;2.30;;;;;;;;;;5033867;28;21668;-68
2023/08/14 09:24:00;;;;;;;3.75;2.60;;;;;;;;;;5015605;28;20037;-69
2023/08/14 09:26:46;;;;;;;3.55;2.28;;;;;;;;;;5030470;28;20575;-72
2023/08/14 09:29:32;;;;;;;3.55;2.50;;;;;;;;;;5013489;28;20052;-81
2023/08/14 09:32:21;;;;;;;4.90;2.60;;;;;;;;;;5028990;28;20061;-83
2023/08/14 09:35:07;;;;;;;5.88;2.50;;;;;;;;;;5011820;28;20044;-83
2023/08/14 09:37:52;;;;;;;3.58;2.47;;;;;;;;;;5012738;28;20033;-84
2023/08/14 09:40:38;;;;;;;5.95;2.60;;;;;;;;;;5025602;28;20532;-82
2023/08/14 09:43:23;;;;;;;5.38;2.67;;;;;;;;;;5013369;28;20052;-83
2023/08/14 09:46:10;;;;;;;3.60;2.35;;;;;;;;;;5012790;28;20040;-69
2023/08/14 09:48:55;;;;;;;4.40;2.80;;;;;;;;;;4999365;28;20071;-67
2023/08/14 09:51:40;;;;;;;4.30;2.20;;;;;;;;;;5012995;28;20077;-67
2023/08/14 09:54:30;;;;;;;4.05;2.67;;;;;;;;;;5012920;28;20029;-71
2023/08/14 09:57:20;;;;;;;5.32;2.50;;;;;;;;;;5004170;28;20030;-69
2023/08/14 10:00:06;;;;;;;4.57;2.55;;;;;;;;;;5012115;28;20164;-70
2023/08/14 10:02:52;;;;;;;5.18;2.67;;;;;;;;;;5011886;28;20210;-70
2023/08/14 10:05:38;;;;;;;9.63;3.30;;;;;;;;;;5012304;28;20041;-69
2023/08/14 10:08:23;;;;;;;6.05;3.17;;;;;;;;;;5030738;28;20044;-68
2023/08/14 10:11:11;;;;;;;3.65;2.60;;;;;;;;;;5018573;28;20077;-69
2023/08/14 10:14:00;;;;;;;4.30;2.90;;;;;;;;;;5028970;28;20029;-69
2023/08/14 10:16:47;;;;;;;3.25;2.47;;;;;;;;;;5036329;28;20091;-70
2023/08/14 10:19:33;;;;;;;3.92;2.92;;;;;;;;;;5022031;28;20487;-75
2023/08/14 10:22:19;;;;;;;5.90;3.40;;;;;;;;;;5029608;28;20037;-71
2023/08/14 10:25:05;;;;;;;3.53;2.47;;;;;;;;;;5028309;28;20384;-72
2023/08/14 10:27:51;;;;;;;5.72;2.80;;;;;;;;;;5032112;28;20071;-72
2023/08/14 10:30:36;;;;;;;4.65;2.85;;;;;;;;;;5031336;28;20037;-72
2023/08/14 10:33:22;;;;;;;4.68;3.13;;;;;;;;;;5043321;28;20020;-73
2023/08/14 10:36:07;;;;;;;6.93;3.13;;;;;;;;;;5046841;28;20094;-73
2023/08/14 10:38:52;;;;;;;4.32;3.00;;;;;;;;;;5032890;28;20033;-69
2023/08/14 10:41:38;;;;;;;9.35;3.10;;;;;;;;;;5037818;28;20047;-69
2023/08/14 10:44:30;;;;;;;4.82;2.95;;;;;;;;;;5030451;28;20419;-67
2023/08/14 10:47:15;;;;;;;4.90;2.67;;;;;;;;;;5028402;28;20031;-68
2023/08/14 10:50:11;;;;;;;5.05;3.25;;;;;;;;;;5037703;28;20033;-68
2023/08/14 10:52:56;;;;;;;5.05;2.95;;;;;;;;;;5030926;28;20029;-67
2023/08/14 10:55:45;;;;;;;6.35;3.50;;;;;;;;;;5046668;28;20029;-67
2023/08/14 10:58:36;;;;;;;5.67;3.10;;;;;;;;;;5026328;28;20402;-73
2023/08/14 11:01:34;;;;;;;6.00;3.47;;;;;;;;;;5021009;28;20036;-77
2023/08/14 11:04:20;;;;;;;7.65;4.15;;;;;;;;;;5035903;28;20040;-79
2023/08/14 11:07:08;;;;;;;3.83;2.70;;;;;;;;;;5015977;28;20017;-78
2023/08/14 11:09:55;;;;;;;4.50;2.83;;;;;;;;;;5015524;28;20052;-80
2023/08/14 11:12:42;;;;;;;4.50;2.80;;;;;;;;;;5033396;28;20028;-77
2023/08/14 11:15:29;;;;;;;4.95;3.17;;;;;;;;;;5049686;28;20037;-73
2023/08/14 11:18:15;;;;;;;5.43;3.15;;;;;;;;;;5041316;28;20385;-75
2023/08/14 11:21:00;;;;;;;4.72;2.97;;;;;;;;;;5035561;28;20156;-77
2023/08/14 11:23:45;;;;;;;5.55;3.40;;;;;;;;;;5030616;28;20053;-76
2023/08/14 11:26:31;;;;;;;5.40;3.20;;;;;;;;;;5044097;28;20067;-75
2023/08/14 11:29:16;;;;;;;3.63;2.78;;;;;;;;;;5035588;28;20452;-77
2023/08/14 11:32:01;;;;;;;6.40;2.65;;;;;;;;;;5020929;28;20096;-76
2023/08/14 11:34:46;;;;;;;6.28;3.30;;;;;;;;;;5028200;28;20036;-73
2023/08/14 11:37:32;;;;;;;3.75;2.78;;;;;;;;;;5023183;28;20037;-73
2023/08/14 11:40:17;;;;;;;6.85;3.38;;;;;;;;;;5048021;28;20025;-72
2023/08/14 11:43:03;;;;;;;5.20;2.80;;;;;;;;;;5038656;28;20501;-69
2023/08/14 11:45:49;;;;;;;5.78;3.20;;;;;;;;;;5040243;28;20083;-72
2023/08/14 11:48:35;;;;;;;5.68;3.72;;;;;;;;;;5041617;28;20036;-71
2023/08/14 11:51:21;;;;;;;6.13;2.95;;;;;;;;;;5021843;28;20051;-72
2023/08/14 11:54:10;;;;;;;5.78;3.72;;;;;;;;;;5020386;28;20035;-72
2023/08/14 11:56:55;;;;;;;;;;;;;;;;;;5045673;28;20071;-66
2023/08/14 11:59:40;;;;;;;4.97;3.70;;;;;;;;;;5033506;28;19913;-69
2023/08/14 12:02:26;;;;;;;5.60;3.63;;;;;;;;;;5034445;28;20037;-69
2023/08/14 12:05:11;;;;;;;3.53;2.95;;;;;;;;;;5044697;28;20032;-69
2023/08/14 12:07:58;;;;;;;4.85;2.83;;;;;;;;;;5033799;28;20032;-69
2023/08/14 12:10:44;;;;;;;4.50;3.08;;;;;;;;;;5065968;28;20135;-74
2023/08/14 12:13:31;;;;;;;6.30;3.35;;;;;;;;;;5036142;28;20028;-68
2023/08/14 12:16:17;;;;;;;5.68;3.30;;;;;;;;;;5034972;28;20108;-69
2023/08/14 12:19:05;;;;;;;5.15;3.40;;;;;;;;;;5028929;28;20612;-68
2023/08/14 12:21:58;;;;;;;3.90;2.63;;;;;;;;;;5049285;28;20064;-67
2023/08/14 12:24:44;;;;;;;4.82;3.40;;;;;;;;;;5049083;28;20263;-68
2023/08/14 12:27:29;;;;;;;4.65;3.10;;;;;;;;;;5044616;28;20025;-68
2023/08/14 12:30:14;;;;;;;4.78;2.97;;;;;;;;;;5035186;28;20036;-72
2023/08/14 12:33:00;;;;;;;4.93;3.20;;;;;;;;;;5034731;28;20067;-74
2023/08/14 12:35:45;;;;;;;3.67;2.65;;;;;;;;;;5034721;28;20059;-73
2023/08/14 12:38:30;;;;;;;4.38;3.22;;;;;;;;;;5030259;28;20047;-74
2023/08/14 12:41:15;;;;;;;5.78;3.00;;;;;;;;;;5050648;28;20032;-75
2023/08/14 12:44:00;;;;;;;4.35;3.03;;;;;;;;;;5035201;28;20025;-76
2023/08/14 12:46:46;;;;;;;5.53;3.20;;;;;;;;;;5035205;28;20068;-77
2023/08/14 12:49:31;;;;;;;8.20;3.50;;;;;;;;;;5039965;28;20030;-71
2023/08/14 12:52:17;;;;;;;5.85;3.05;;;;;;;;;;5029750;28;20095;-73
2023/08/14 12:55:02;;;;;;;5.63;3.00;;;;;;;;;;5036673;28;20036;-70
2023/08/14 12:57:47;;;;;;;7.75;3.35;;;;;;;;;;5039179;28;20528;-71
2023/08/14 13:00:32;;;;;;;6.03;3.60;;;;;;;;;;5054047;28;20040;-70
2023/08/14 13:03:17;;;;;;;5.68;3.65;;;;;;;;;;5033969;28;20025;-71
2023/08/14 13:06:03;;;;;;;6.53;3.38;;;;;;;;;;5032841;28;20399;-77
2023/08/14 13:08:48;;;;;;;3.85;3.03;;;;;;;;;;5033594;28;20028;-71
2023/08/14 13:11:34;;;;;;;6.47;3.42;;;;;;;;;;5033081;28;20072;-72
2023/08/14 13:14:19;;;;;;;5.10;2.83;;;;;;;;;;5034152;28;20040;-71
2023/08/14 13:17:04;;;;;;;7.85;3.33;;;;;;;;;;5050631;28;20021;-71
2023/08/14 13:19:50;;;;;;;5.22;3.25;;;;;;;;;;5044836;28;20032;-72
2023/08/14 13:22:36;;;;;;;4.07;2.55;;;;;;;;;;5033568;28;20040;-74
2023/08/14 13:25:21;;;;;;;4.30;2.83;;;;;;;;;;5020865;28;20665;-76
2023/08/14 13:28:06;;;;;;;6.80;3.20;;;;;;;;;;5028231;28;20037;-71
2023/08/14 13:30:51;;;;;;;5.18;2.65;;;;;;;;;;5023402;28;20036;-70
2023/08/14 13:33:36;;;;;;;6.40;3.13;;;;;;;;;;5029388;28;20064;-70
2023/08/14 13:36:22;;;;;;;4.50;2.80;;;;;;;;;;5027455;28;20025;-69
2023/08/14 13:39:08;;;;;;;4.43;2.83;;;;;;;;;;5037840;28;20032;-71
2023/08/14 13:41:54;;;;;;;4.72;3.20;;;;;;;;;;5033457;28;20043;-71
2023/08/14 13:44:39;;;;;;;5.18;2.88;;;;;;;;;;5033268;28;20407;-70
2023/08/14 13:47:24;;;;;;;5.30;2.80;;;;;;;;;;5023158;28;20495;-72
2023/08/14 13:50:09;;;;;;;3.83;2.80;;;;;;;;;;5035756;28;20036;-69
2023/08/14 13:52:55;;;;;;;7.68;3.53;;;;;;;;;;5030009;28;20107;-70
2023/08/14 13:55:44;;;;;;;4.57;3.30;;;;;;;;;;5030663;28;20032;-71
2023/08/14 13:58:29;;;;;;;3.42;2.58;;;;;;;;;;5017732;28;20021;-71
2023/08/14 14:01:14;;;;;;;4.95;2.92;;;;;;;;;;5051969;28;20045;-70
2023/08/14 14:03:59;;;;;;;5.18;3.17;;;;;;;;;;5034447;28;20467;-70
2023/08/14 14:06:45;;;;;;;4.82;3.08;;;;;;;;;;5034841;28;20120;-70
2023/08/14 14:09:30;;;;;;;5.05;3.05;;;;;;;;;;5033472;28;20053;-72
2023/08/14 14:12:15;;;;;;;4.78;2.70;;;;;;;;;;5033260;28;20025;-71
2023/08/14 14:15:01;;;;;;;3.97;2.72;;;;;;;;;;5042420;28;20040;-71
2023/08/14 14:17:46;;;;;;;4.50;2.90;;;;;;;;;;5034058;28;20179;-71
2023/08/14 14:20:31;;;;;;;5.40;2.95;;;;;;;;;;5035255;28;20388;-68
2023/08/14 14:23:17;;;;;;;4.25;3.03;;;;;;;;;;5036819;28;20498;-68
2023/08/14 14:26:02;;;;;;;4.68;3.05;;;;;;;;;;5043867;28;20032;-67
2023/08/14 14:28:47;;;;;;;4.97;3.13;;;;;;;;;;5050374;28;20040;-68
2023/08/14 14:31:32;;;;;;;7.35;3.10;;;;;;;;;;5051517;28;20033;-67
2023/08/14 14:34:18;;;;;;;4.38;2.80;;;;;;;;;;5027354;28;20083;-68
2023/08/14 14:37:03;;;;;;;4.18;2.90;;;;;;;;;;5039516;28;20037;-70
2023/08/14 14:39:48;;;;;;;4.22;2.92;;;;;;;;;;5023250;28;20047;-73
2023/08/14 14:42:33;;;;;;;3.60;2.53;;;;;;;;;;5049322;28;20083;-72
2023/08/14 14:45:19;;;;;;;4.38;3.08;;;;;;;;;;5034345;28;20116;-73
2023/08/14 14:48:04;;;;;;;5.13;2.88;;;;;;;;;;5036016;28;20114;-71
2023/08/14 14:50:53;;;;;;;4.70;2.50;;;;;;;;;;5044589;28;20108;-71
2023/08/14 14:53:38;;;;;;;;;;;;;;;;;;5025199;28;20486;-71
2023/08/14 14:56:23;;;;;;;4.85;2.92;;;;;;;;;;5036621;28;19924;-70
2023/08/14 14:59:09;;;;;;;6.00;2.90;;;;;;;;;;5044379;28;20025;-76
2023/08/14 15:01:54;;;;;;;4.90;2.95;;;;;;;;;;5027994;28;20264;-76
2023/08/14 15:04:40;;;;;;;4.93;2.80;;;;;;;;;;5022787;28;20291;-74
2023/08/14 15:07:25;;;;;;;4.97;2.95;;;;;;;;;;5015414;28;20041;-75
2023/08/14 15:10:11;;;;;;;5.93;3.38;;;;;;;;;;5034477;28;20049;-77
2023/08/14 15:12:56;;;;;;;5.50;3.30;;;;;;;;;;5035350;28;20029;-77
2023/08/14 15:15:41;;;;;;;4.25;2.95;;;;;;;;;;5028678;28;20033;-77
2023/08/14 15:18:26;;;;;;;5.50;2.88;;;;;;;;;;5040335;28;20044;-68
2023/08/14 15:21:11;;;;;;;3.95;2.80;;;;;;;;;;5040753;28;20024;-68
2023/08/14 15:23:57;;;;;;;6.35;3.92;;;;;;;;;;5049062;28;20037;-68
2023/08/14 15:26:42;;;;;;;5.53;3.95;;;;;;;;;;5036426;28;20029;-67
2023/08/14 15:29:27;;;;;;;5.70;3.33;;;;;;;;;;5046066;28;20039;-68
2023/08/14 15:32:12;;;;;;;5.82;3.10;;;;;;;;;;5035695;28;20028;-72
2023/08/14 15:34:58;;;;;;;5.32;3.35;;;;;;;;;;5035995;28;20578;-74
2023/08/14 15:37:43;;;;;;;5.40;3.53;;;;;;;;;;5035289;28;20025;-68
2023/08/14 15:40:29;;;;;;;3.90;2.95;;;;;;;;;;5045992;28;20074;-68
2023/08/14 15:43:14;;;;;;;6.20;3.05;;;;;;;;;;5019204;28;20109;-69
2023/08/14 15:46:01;;;;;;;8.07;3.35;;;;;;;;;;5032297;28;20130;-70
2023/08/14 15:48:47;;;;;;;5.72;3.22;;;;;;;;;;5060567;28;20087;-70
2023/08/14 15:51:32;;;;;;;6.25;3.45;;;;;;;;;;5037264;28;20082;-71
2023/08/14 15:54:17;;;;;;;5.43;3.15;;;;;;;;;;5032504;28;20032;-71
2023/08/14 15:57:03;;;;;;;5.20;3.42;;;;;;;;;;5026696;28;20065;-71
2023/08/14 15:59:48;;;;;;;4.10;2.90;;;;;;;;;;5040868;28;20037;-71
2023/08/14 16:02:33;;;;;;;5.13;3.33;;;;;;;;;;5033158;28;20041;-70
2023/08/14 16:05:19;;;;;;;4.57;3.30;;;;;;;;;;5030942;28;20053;-72
2023/08/14 16:08:04;;;;;;;9.07;3.42;;;;;;;;;;5032246;28;20471;-69
2023/08/14 16:10:49;;;;;;;5.13;2.80;;;;;;;;;;5026297;28;20081;-73
2023/08/14 16:13:34;;;;;;;5.43;3.60;;;;;;;;;;5033199;28;20029;-71
2023/08/14 16:16:20;;;;;;;10.20;3.83;;;;;;;;;;5030885;28;20487;-71
2023/08/14 16:19:05;;;;;;;5.65;3.17;;;;;;;;;;5024949;28;20168;-69
2023/08/14 16:21:50;;;;;;;5.38;3.58;;;;;;;;;;5034682;28;20040;-69
2023/08/14 16:24:37;;;;;;;4.20;3.05;;;;;;;;;;5020242;28;20396;-68
2023/08/14 16:27:22;;;;;;;5.68;2.95;;;;;;;;;;5027699;28;20029;-71
2023/08/14 16:30:08;;;;;;;7.47;3.30;;;;;;;;;;5025445;28;20029;-69
2023/08/14 16:32:53;;;;;;;7.35;3.63;;;;;;;;;;5009410;28;20099;-68
2023/08/14 16:35:38;;;;;;;7.53;3.42;;;;;;;;;;5029966;28;20257;-68